createdAt,value
2018-08-23T00:01:52.549Z,75.73
2018-08-23T00:04:25.185Z,79.20
2018-08-23T00:07:02.905Z,76.80
2018-08-23T00:09:38.328Z,75.17
2018-08-23T00:12:10.734Z,79.27
2018-08-23T00:14:43.285Z,78.50
2018-08-23T00:17:15.560Z,79.20
2018-08-23T00:19:48.866Z,80.37
2018-08-23T00:22:28.027Z,78.60
2018-08-23T00:24:59.964Z,79.43
2018-08-23T00:27:33.303Z,78.00
2018-08-23T00:30:05.870Z,78.83
2018-08-23T00:32:38.330Z,74.73
2018-08-23T00:35:15.335Z,76.87
2018-08-23T00:37:48.065Z,76.70
2018-08-23T00:40:20.035Z,75.97
2018-08-23T00:42:56.364Z,79.93
2018-08-23T00:45:28.700Z,78.27
2018-08-23T00:48:01.057Z,79.80
2018-08-23T00:51:04.522Z,82.43
2018-08-23T00:53:38.366Z,84.67
2018-08-23T00:56:18.547Z,87.00
2018-08-23T00:58:55.423Z,82.60
2018-08-23T01:01:27.458Z,87.27
2018-08-23T01:03:59.745Z,88.17
2018-08-23T01:06:45.554Z,92.47
2018-08-23T01:09:17.962Z,89.83
2018-08-23T01:11:50.473Z,93.43
2018-08-23T01:14:23.006Z,92.30
2018-08-23T01:17:07.043Z,88.07
2018-08-23T01:20:09.985Z,87.00
2018-08-23T01:22:50.363Z,88.00
2018-08-23T01:25:23.015Z,89.17
2018-08-23T01:27:55.632Z,87.33
2018-08-23T01:30:28.104Z,86.20
2018-08-23T01:33:00.780Z,86.23
2018-08-23T01:35:33.367Z,85.33
2018-08-23T01:38:05.328Z,80.53
2018-08-23T01:40:37.441Z,80.57
2018-08-23T01:43:09.854Z,82.73
2018-08-23T01:45:42.839Z,83.33
2018-08-23T01:48:15.483Z,80.17
2018-08-23T01:50:48.273Z,77.97
2018-08-23T01:53:21.869Z,75.07
2018-08-23T01:55:54.674Z,83.10
2018-08-23T01:58:26.647Z,77.00
2018-08-23T02:01:14.243Z,78.90
2018-08-23T02:03:46.810Z,78.03
2018-08-23T02:06:19.094Z,77.43
2018-08-23T02:08:51.928Z,74.47
2018-08-23T02:11:24.466Z,76.77
2018-08-23T02:13:56.729Z,74.00
2018-08-23T02:16:33.518Z,79.70
2018-08-23T02:19:05.533Z,78.83
2018-08-23T02:21:38.462Z,79.70
2018-08-23T02:24:11.109Z,76.73
2018-08-23T02:26:45.010Z,83.80
2018-08-23T02:29:22.392Z,81.83
2018-08-23T02:31:54.948Z,84.10
2018-08-23T02:34:31.443Z,79.50
2018-08-23T02:37:04.023Z,81.53
2018-08-23T02:39:36.023Z,76.70
2018-08-23T02:42:09.601Z,78.53
2018-08-23T02:44:42.142Z,78.93
2018-08-23T02:47:15.432Z,76.37
2018-08-23T02:49:48.408Z,75.60
2018-08-23T02:52:21.750Z,79.43
2018-08-23T02:54:54.208Z,76.23
2018-08-23T02:57:26.078Z,76.50
2018-08-23T02:59:58.826Z,79.23
2018-08-23T03:02:31.299Z,78.07
2018-08-23T03:05:04.659Z,79.83
2018-08-23T03:07:37.216Z,78.20
2018-08-23T03:10:09.668Z,84.50
2018-08-23T03:12:42.175Z,78.00
2018-08-23T03:15:15.497Z,76.60
2018-08-23T03:17:52.470Z,76.90
2018-08-23T03:20:25.200Z,76.80
2018-08-23T03:22:58.205Z,73.80
2018-08-23T03:25:30.502Z,77.40
2018-08-23T03:28:03.082Z,75.77
2018-08-23T03:30:35.652Z,80.80
2018-08-23T03:33:07.780Z,78.37
2018-08-23T03:35:40.449Z,77.80
2018-08-23T03:38:12.972Z,83.23
2018-08-23T03:40:45.870Z,77.93
2018-08-23T03:43:18.357Z,79.10
2018-08-23T03:45:50.919Z,77.90
2018-08-23T03:48:23.861Z,77.83
2018-08-23T03:50:56.258Z,83.33
2018-08-23T03:53:41.543Z,78.33
2018-08-23T03:56:14.584Z,78.17
2018-08-23T03:58:47.284Z,79.23
2018-08-23T04:01:19.660Z,74.57
2018-08-23T04:03:53.177Z,80.13
2018-08-23T04:06:34.657Z,80.03
2018-08-23T04:09:09.912Z,79.80
2018-08-23T04:11:42.552Z,80.87
2018-08-23T04:14:15.127Z,81.30
2018-08-23T04:16:47.317Z,80.17
2018-08-23T04:19:20.049Z,80.00
2018-08-23T04:21:52.689Z,81.40
2018-08-23T04:24:25.525Z,82.47
2018-08-23T04:26:57.938Z,83.23
2018-08-23T04:29:36.663Z,83.80
2018-08-23T04:32:09.351Z,82.53
2018-08-23T04:34:42.473Z,81.57
2018-08-23T04:37:15.055Z,82.90
2018-08-23T04:39:52.576Z,83.20
2018-08-23T04:42:25.620Z,85.07
2018-08-23T04:44:58.221Z,81.30
2018-08-23T04:47:30.635Z,81.47
2018-08-23T04:50:03.202Z,80.53
2018-08-23T04:52:35.483Z,82.30
2018-08-23T04:55:07.887Z,87.60
2018-08-23T04:57:40.245Z,86.17
2018-08-23T05:00:13.225Z,80.93
2018-08-23T05:02:45.475Z,88.27
2018-08-23T05:05:19.269Z,86.47
2018-08-23T05:07:51.702Z,91.20
2018-08-23T05:10:23.860Z,91.03
2018-08-23T05:12:56.234Z,88.60
2018-08-23T05:15:29.026Z,88.97
2018-08-23T05:18:01.865Z,94.33
2018-08-23T05:20:34.062Z,87.63
2018-08-23T05:23:06.745Z,91.30
2018-08-23T05:25:39.241Z,89.87
2018-08-23T05:28:18.258Z,94.80
2018-08-23T05:30:51.236Z,93.87
2018-08-23T05:33:24.505Z,90.97
2018-08-23T05:35:57.218Z,97.33
2018-08-23T05:38:30.023Z,93.63
2018-08-23T05:41:06.757Z,95.27
2018-08-23T05:43:39.518Z,97.00
2018-08-23T05:46:12.241Z,95.20
2018-08-23T05:48:44.960Z,94.03
2018-08-23T05:51:18.152Z,93.30
2018-08-23T05:53:52.420Z,100.87
2018-08-23T05:56:24.928Z,99.03
2018-08-23T05:59:03.028Z,95.50
2018-08-23T06:01:35.561Z,99.17
2018-08-23T06:04:08.195Z,97.93
2018-08-23T06:06:40.902Z,99.33
2018-08-23T06:09:17.597Z,102.60
2018-08-23T06:11:50.373Z,101.57
2018-08-23T06:14:23.468Z,101.67
2018-08-23T06:16:58.902Z,106.87
2018-08-23T06:19:31.584Z,103.23
2018-08-23T06:22:04.215Z,106.67
2018-08-23T06:24:36.720Z,105.37
2018-08-23T06:27:09.198Z,101.67
2018-08-23T06:29:41.943Z,105.30
2018-08-23T06:32:14.970Z,106.70
2018-08-23T06:34:53.203Z,104.17
2018-08-23T06:37:25.750Z,102.47
2018-08-23T06:39:58.419Z,103.03
2018-08-23T06:42:44.473Z,104.60
2018-08-23T06:45:16.964Z,106.20
2018-08-23T06:47:53.917Z,103.63
2018-08-23T06:50:27.712Z,101.40
2018-08-23T06:53:00.106Z,110.97
2018-08-23T06:55:35.850Z,106.77
2018-08-23T06:58:08.004Z,103.27
2018-08-23T07:00:40.524Z,109.13
2018-08-23T07:03:12.872Z,109.57
2018-08-23T07:05:45.640Z,108.13
2018-08-23T07:08:18.051Z,109.10
2018-08-23T07:10:50.929Z,109.07
2018-08-23T07:13:23.640Z,105.07
2018-08-23T07:16:02.076Z,111.27
2018-08-23T07:18:35.074Z,100.53
2018-08-23T07:21:07.423Z,109.40
2018-08-23T07:23:40.015Z,109.77
2018-08-23T07:26:12.235Z,109.13
2018-08-23T07:28:44.824Z,105.13
2018-08-23T07:31:17.417Z,107.97
2018-08-23T07:33:52.242Z,108.10
2018-08-23T07:36:31.169Z,103.00
2018-08-23T07:39:03.248Z,115.27
2018-08-23T07:41:35.714Z,110.23
2018-08-23T07:44:08.070Z,107.43
2018-08-23T07:46:40.215Z,111.63
2018-08-23T07:49:12.873Z,111.87
2018-08-23T07:51:45.877Z,114.97
2018-08-23T07:54:19.853Z,112.67
2018-08-23T07:56:52.444Z,116.70
2018-08-23T07:59:24.868Z,116.67
2018-08-23T08:01:57.036Z,113.57
2018-08-23T08:04:29.460Z,111.60
2018-08-23T08:07:02.268Z,113.87
2018-08-23T08:09:35.150Z,119.63
2018-08-23T08:12:11.705Z,115.87
2018-08-23T08:14:44.287Z,117.20
2018-08-23T08:17:21.328Z,107.83
2018-08-23T08:19:57.013Z,116.07
2018-08-23T08:22:29.520Z,117.43
2018-08-23T08:25:15.873Z,115.53
2018-08-23T08:27:48.704Z,121.83
2018-08-23T08:30:26.469Z,118.07
2018-08-23T08:32:58.792Z,123.77
2018-08-23T08:35:31.087Z,124.50
2018-08-23T08:38:03.371Z,119.80
2018-08-23T08:40:35.883Z,123.00
2018-08-23T08:43:08.296Z,123.47
2018-08-23T08:45:40.710Z,123.57
2018-08-23T08:48:35.634Z,126.63
2018-08-23T08:51:20.171Z,129.40
2018-08-23T08:53:52.764Z,125.50
2018-08-23T08:56:30.388Z,127.57
2018-08-23T08:59:03.014Z,132.80
2018-08-23T09:01:36.024Z,126.60
2018-08-23T09:04:08.289Z,130.47
2018-08-23T09:09:35.898Z,137.57
2018-08-23T09:12:09.645Z,126.27
2018-08-23T09:14:43.367Z,134.40
2018-08-23T09:17:29.412Z,131.70
2018-08-23T09:20:08.285Z,134.17
2018-08-23T09:22:45.242Z,135.20
2018-08-23T09:25:22.976Z,130.63
2018-08-23T09:27:55.693Z,127.13
2018-08-23T09:30:29.426Z,131.77
2018-08-23T09:33:06.644Z,129.47
2018-08-23T09:35:39.298Z,136.20
2018-08-23T09:38:16.064Z,135.40
2018-08-23T09:40:48.458Z,137.33
2018-08-23T09:43:20.820Z,134.43
2018-08-23T09:45:54.759Z,132.60
2018-08-23T09:48:27.295Z,134.93
2018-08-23T09:51:00.080Z,131.33
2018-08-23T09:53:32.548Z,129.20
2018-08-23T09:56:05.073Z,132.03
2018-08-23T09:58:42.243Z,129.00
2018-08-23T10:01:19.522Z,127.17
2018-08-23T10:03:56.195Z,124.83
2018-08-23T10:06:32.832Z,125.60
2018-08-23T10:09:17.200Z,123.80
2018-08-23T10:11:54.015Z,121.50
2018-08-23T10:14:31.026Z,125.87
2018-08-23T10:17:07.953Z,122.80
2018-08-23T10:19:44.743Z,126.30
2018-08-23T10:22:34.285Z,125.53
2018-08-23T10:25:41.635Z,123.90
2018-08-23T10:28:15.373Z,128.33
2018-08-23T10:30:47.862Z,125.93
2018-08-23T10:33:20.531Z,122.33
2018-08-23T10:35:54.194Z,124.50
2018-08-23T10:38:27.644Z,126.47
2018-08-23T10:41:07.247Z,121.47
2018-08-23T10:43:47.846Z,126.73
2018-08-23T10:46:20.220Z,119.63
2018-08-23T10:48:52.563Z,120.33
2018-08-23T10:51:25.183Z,120.30
2018-08-23T10:53:57.577Z,121.00
2018-08-23T10:56:30.153Z,123.13
2018-08-23T10:59:02.559Z,123.60
2018-08-23T11:01:34.809Z,117.47
2018-08-23T11:04:08.305Z,118.97
2018-08-23T11:06:45.278Z,123.37
2018-08-23T11:09:22.098Z,121.83
2018-08-23T11:11:54.432Z,123.50
2018-08-23T11:14:31.128Z,120.07
2018-08-23T11:17:07.933Z,123.83
2018-08-23T11:19:45.259Z,119.30
2018-08-23T11:22:17.828Z,114.40
2018-08-23T11:24:50.331Z,123.73
2018-08-23T11:27:22.747Z,118.50
2018-08-23T11:29:55.101Z,115.37
2018-08-23T11:32:27.298Z,122.67
2018-08-23T11:34:59.930Z,115.70
2018-08-23T11:37:32.393Z,118.57
2018-08-23T11:40:04.655Z,117.20
2018-08-23T11:42:36.914Z,118.53
2018-08-23T11:45:09.420Z,115.97
2018-08-23T11:47:41.928Z,118.40
2018-08-23T11:50:14.423Z,114.80
2018-08-23T11:52:46.545Z,117.40
2018-08-23T11:55:18.999Z,113.60
2018-08-23T11:57:52.008Z,115.40
2018-08-23T12:00:24.525Z,108.80
2018-08-23T12:02:57.617Z,106.80
2018-08-23T12:05:29.940Z,100.60
2018-08-23T12:08:02.308Z,98.20
2018-08-23T12:10:35.108Z,100.90
2018-08-23T12:13:07.502Z,93.50
2018-08-23T12:15:40.020Z,97.33
2018-08-23T12:18:12.871Z,91.77
2018-08-23T12:20:45.403Z,94.37
2018-08-23T12:23:17.835Z,85.43
2018-08-23T12:25:50.248Z,88.57
2018-08-23T12:28:27.243Z,90.43
2018-08-23T12:30:59.501Z,88.83
2018-08-23T12:33:31.849Z,83.27
2018-08-23T12:36:07.280Z,84.20
2018-08-23T12:38:44.447Z,80.60
2018-08-23T12:41:21.608Z,82.73
2018-08-23T12:43:54.100Z,79.67
2018-08-23T12:46:26.875Z,77.23
2018-08-23T12:48:59.908Z,76.97
2018-08-23T12:51:32.119Z,75.77
2018-08-23T12:54:04.559Z,75.77
2018-08-23T12:56:36.945Z,72.73
2018-08-23T12:59:09.538Z,71.87
2018-08-23T13:01:41.912Z,67.53
2018-08-23T13:04:14.162Z,71.40
2018-08-23T13:06:46.722Z,68.17
2018-08-23T13:09:19.293Z,69.03
2018-08-23T13:11:51.636Z,69.63
2018-08-23T13:14:23.768Z,68.73
2018-08-23T13:16:56.117Z,68.23
2018-08-23T13:19:28.701Z,66.77
2018-08-23T13:22:04.135Z,70.90
2018-08-23T13:24:41.137Z,63.77
2018-08-23T13:27:13.384Z,67.57
2018-08-23T13:29:45.932Z,64.83
2018-08-23T13:32:18.520Z,67.13
2018-08-23T13:34:50.960Z,65.40
2018-08-23T13:37:23.692Z,65.23
2018-08-23T13:39:56.325Z,64.93
2018-08-23T13:42:28.650Z,66.07
2018-08-23T13:45:01.293Z,62.17
2018-08-23T13:47:33.739Z,61.23
2018-08-23T13:50:07.416Z,58.20
2018-08-23T13:52:39.609Z,59.03
2018-08-23T13:55:11.793Z,58.23
2018-08-23T13:57:44.315Z,58.13
2018-08-23T14:00:20.902Z,62.80
2018-08-23T14:02:53.028Z,57.60
2018-08-23T14:05:25.253Z,57.90
2018-08-23T14:07:57.883Z,58.57
2018-08-23T14:10:30.108Z,59.13
2018-08-23T14:13:02.317Z,58.73
2018-08-23T14:15:39.031Z,58.77
2018-08-23T14:18:11.390Z,58.50
2018-08-23T14:20:43.789Z,60.43
2018-08-23T14:23:16.336Z,56.30
2018-08-23T14:25:48.560Z,63.47
2018-08-23T14:28:21.012Z,56.50
2018-08-23T14:30:53.351Z,55.53
2018-08-23T14:33:25.601Z,57.03
2018-08-23T14:35:57.993Z,55.70
2018-08-23T14:38:30.320Z,53.90
2018-08-23T14:41:02.624Z,51.47
2018-08-23T14:43:34.968Z,53.50
2018-08-23T14:46:11.719Z,51.30
2018-08-23T14:48:44.090Z,45.17
2018-08-23T14:51:19.093Z,43.90
2018-08-23T14:53:51.829Z,42.30
2018-08-23T14:56:28.867Z,37.57
2018-08-23T14:59:01.378Z,37.77
2018-08-23T15:01:33.697Z,37.83
2018-08-23T15:04:06.386Z,36.90
2018-08-23T15:06:38.709Z,37.07
2018-08-23T15:09:11.136Z,37.13
2018-08-23T15:11:43.357Z,38.73
2018-08-23T15:14:15.995Z,37.97
2018-08-23T15:16:48.512Z,35.13
2018-08-23T15:19:21.079Z,39.30
2018-08-23T15:21:53.929Z,39.30
2018-08-23T15:24:26.339Z,39.10
2018-08-23T15:26:58.949Z,38.27
2018-08-23T15:29:31.286Z,40.53
2018-08-23T15:32:03.628Z,42.90
2018-08-23T15:34:35.841Z,40.50
2018-08-23T15:37:08.599Z,42.50
2018-08-23T15:39:42.020Z,38.70
2018-08-23T15:42:14.716Z,42.30
2018-08-23T15:44:46.927Z,45.00
2018-08-23T15:47:19.526Z,45.10
2018-08-23T15:49:52.149Z,43.23
2018-08-23T15:52:24.328Z,43.60
2018-08-23T15:54:56.881Z,41.27
2018-08-23T15:57:29.205Z,37.07
2018-08-23T16:00:01.602Z,34.17
2018-08-23T16:02:33.728Z,31.37
2018-08-23T16:05:06.230Z,27.90
2018-08-23T16:07:38.621Z,28.50
2018-08-23T16:10:11.765Z,28.77
2018-08-23T16:12:44.281Z,25.50
2018-08-23T16:15:22.564Z,23.50
2018-08-23T16:18:03.797Z,23.53
2018-08-23T16:20:40.509Z,21.17
2018-08-23T16:23:13.810Z,24.73
2018-08-23T16:25:46.367Z,24.60
2018-08-23T16:28:18.867Z,22.80
2018-08-23T16:30:51.077Z,21.10
2018-08-23T16:33:23.392Z,19.67
2018-08-23T16:35:55.556Z,16.40
2018-08-23T16:38:27.676Z,16.10
2018-08-23T16:41:00.276Z,17.27
2018-08-23T16:43:32.597Z,17.33
2018-08-23T16:46:04.994Z,18.00
2018-08-23T16:48:37.508Z,17.27
2018-08-23T16:51:09.936Z,16.47
2018-08-23T16:53:42.700Z,16.07
2018-08-23T16:56:14.878Z,16.77
2018-08-23T16:58:47.452Z,17.00
2018-08-23T17:01:19.577Z,18.90
2018-08-23T17:03:55.119Z,26.80
2018-08-23T17:06:29.143Z,25.37
2018-08-23T17:09:01.547Z,26.40
2018-08-23T17:11:33.865Z,28.10
2018-08-23T17:14:06.133Z,26.43
2018-08-23T17:16:43.294Z,28.80
2018-08-23T17:19:15.552Z,29.13
2018-08-23T17:21:47.956Z,30.33
2018-08-23T17:24:20.380Z,29.60
2018-08-23T17:26:53.145Z,27.40
2018-08-23T17:29:25.905Z,28.23
2018-08-23T17:31:58.151Z,28.83
2018-08-23T17:34:31.389Z,29.43
2018-08-23T17:37:03.739Z,29.10
2018-08-23T17:39:36.239Z,29.17
2018-08-23T17:42:08.589Z,28.00
2018-08-23T17:44:41.362Z,30.20
2018-08-23T17:47:17.213Z,32.30
2018-08-23T17:49:49.934Z,32.50
2018-08-23T17:52:22.580Z,33.57
2018-08-23T17:54:55.044Z,34.60
2018-08-23T17:57:27.336Z,36.70
2018-08-23T17:59:59.527Z,41.30
2018-08-23T18:02:31.915Z,39.80
2018-08-23T18:05:04.899Z,42.60
2018-08-23T18:07:37.948Z,41.70
2018-08-23T18:10:10.496Z,48.80
2018-08-23T18:12:42.606Z,52.83
2018-08-23T18:15:15.022Z,52.23
2018-08-23T18:17:47.535Z,55.00
2018-08-23T18:20:20.076Z,62.10
2018-08-23T18:22:52.635Z,59.60
2018-08-23T18:25:25.833Z,58.90
2018-08-23T18:27:58.277Z,57.20
2018-08-23T18:30:30.345Z,58.57
2018-08-23T18:33:02.991Z,59.33
2018-08-23T18:35:35.374Z,63.30
2018-08-23T18:38:07.631Z,62.10
2018-08-23T18:40:40.166Z,56.67
2018-08-23T18:43:12.624Z,53.70
2018-08-23T18:45:44.611Z,54.17
2018-08-23T18:48:17.380Z,50.60
2018-08-23T18:50:49.815Z,42.70
2018-08-23T18:53:22.363Z,47.73
2018-08-23T18:55:54.953Z,41.63
2018-08-23T18:58:27.429Z,51.17
2018-08-23T19:00:59.584Z,37.30
2018-08-23T19:03:31.919Z,47.77
2018-08-23T19:06:04.748Z,45.30
2018-08-23T19:08:37.061Z,50.00
2018-08-23T19:11:09.560Z,45.07
2018-08-23T19:13:42.208Z,38.33
2018-08-23T19:16:19.081Z,33.03
2018-08-23T19:18:51.319Z,28.87
2018-08-23T19:21:23.719Z,28.23
2018-08-23T19:23:56.375Z,24.80
2018-08-23T19:26:28.963Z,31.10
2018-08-23T19:29:01.377Z,37.87
2018-08-23T19:31:33.929Z,29.43
2018-08-23T19:34:06.323Z,19.30
2018-08-23T19:36:38.576Z,16.10
2018-08-23T19:39:14.166Z,19.67
2018-08-23T19:41:46.430Z,17.73
2018-08-23T19:44:18.843Z,12.67
2018-08-23T19:46:55.935Z,12.40
2018-08-23T19:49:32.565Z,12.50
2018-08-23T19:52:04.929Z,16.03
2018-08-23T19:54:37.261Z,19.43
2018-08-23T19:57:09.442Z,21.97
2018-08-23T19:59:41.554Z,23.47
2018-08-23T20:02:14.160Z,21.80
2018-08-23T20:04:46.940Z,23.10
2018-08-23T20:07:19.719Z,22.70
2018-08-23T20:09:52.052Z,21.23
2018-08-23T20:12:24.425Z,21.27
2018-08-23T20:14:56.746Z,22.37
2018-08-23T20:17:29.011Z,23.87
2018-08-23T20:20:01.363Z,22.50
2018-08-23T20:22:33.604Z,23.20
2018-08-23T20:25:06.050Z,22.70
2018-08-23T20:27:38.223Z,22.60
2018-08-23T20:30:10.596Z,22.53
2018-08-23T20:32:42.844Z,24.07
2018-08-23T20:35:15.433Z,21.37
2018-08-23T20:37:47.624Z,21.03
2018-08-23T20:40:19.771Z,21.23
2018-08-23T20:42:52.087Z,21.90
2018-08-23T20:45:24.281Z,22.93
2018-08-23T20:47:56.491Z,23.47
2018-08-23T20:50:28.993Z,21.73
2018-08-23T20:53:01.827Z,23.87
2018-08-23T20:55:34.273Z,22.30
2018-08-23T20:58:06.572Z,23.20
2018-08-23T21:00:38.950Z,25.30
2018-08-23T21:03:11.164Z,25.97
2018-08-23T21:05:44.004Z,25.70
2018-08-23T21:08:16.613Z,25.40
2018-08-23T21:10:48.737Z,25.47
2018-08-23T21:13:20.944Z,26.63
2018-08-23T21:15:53.126Z,27.70
2018-08-23T21:18:25.907Z,26.83
2018-08-23T21:20:58.257Z,24.13
2018-08-23T21:23:31.020Z,25.10
2018-08-23T21:26:03.675Z,25.33
2018-08-23T21:28:35.758Z,25.57
2018-08-23T21:31:08.178Z,23.20
2018-08-23T21:33:41.197Z,22.00
2018-08-23T21:36:13.382Z,14.87
2018-08-23T21:38:45.623Z,10.30
2018-08-23T21:41:17.856Z,10.60
2018-08-23T21:43:50.403Z,10.43
2018-08-23T21:46:22.924Z,9.60
2018-08-23T21:48:55.251Z,8.30
2018-08-23T21:51:27.615Z,7.80
2018-08-23T21:53:59.917Z,7.90
2018-08-23T21:56:32.363Z,9.70
2018-08-23T21:59:04.462Z,11.10
2018-08-23T22:01:37.440Z,11.53
2018-08-23T22:04:09.659Z,12.57
2018-08-23T22:06:41.984Z,13.40
2018-08-23T22:09:14.447Z,13.97
2018-08-23T22:11:46.928Z,13.17
2018-08-23T22:14:19.493Z,13.77
2018-08-23T22:16:52.483Z,13.23
2018-08-23T22:19:24.513Z,11.57
2018-08-23T22:21:57.192Z,11.47
2018-08-23T22:24:29.661Z,12.33
2018-08-23T22:27:01.984Z,11.53
2018-08-23T22:29:34.565Z,10.27
2018-08-23T22:32:06.896Z,10.10
2018-08-23T22:34:39.308Z,10.20
2018-08-23T22:37:11.669Z,8.77
2018-08-23T22:39:44.449Z,6.37
2018-08-23T22:42:16.887Z,6.10
2018-08-23T22:44:49.307Z,5.00
2018-08-23T22:47:21.870Z,4.53
2018-08-23T22:49:54.462Z,5.17
2018-08-23T22:52:26.844Z,5.63
2018-08-23T22:54:59.086Z,4.63
2018-08-23T22:57:31.822Z,3.93
2018-08-23T23:00:04.400Z,3.80
2018-08-23T23:02:40.438Z,3.73
2018-08-23T23:05:12.793Z,3.70
2018-08-23T23:07:45.753Z,3.50
2018-08-23T23:10:18.263Z,3.60
2018-08-23T23:12:50.759Z,3.73
2018-08-23T23:15:27.172Z,4.00
2018-08-23T23:17:59.583Z,2.67
2018-08-23T23:20:31.695Z,3.10
2018-08-23T23:23:04.547Z,3.30
2018-08-23T23:25:37.075Z,4.00
2018-08-23T23:28:10.068Z,3.97
2018-08-23T23:30:42.296Z,4.00
2018-08-23T23:33:14.813Z,2.90
2018-08-23T23:35:47.116Z,3.43
2018-08-23T23:38:19.427Z,3.47
2018-08-23T23:40:51.631Z,3.20
2018-08-23T23:43:23.978Z,3.67
2018-08-23T23:45:56.455Z,3.20
2018-08-23T23:48:28.903Z,3.10
2018-08-23T23:51:01.932Z,2.53
2018-08-23T23:53:34.312Z,2.40
2018-08-23T23:56:06.554Z,3.10
2018-08-23T23:58:38.638Z,2.57
